createdAt,value
2022-09-27T00:08:42.144Z,1.63
2022-09-27T00:18:43.373Z,1.52
2022-09-27T00:28:44.692Z,1.83
2022-09-27T00:38:45.989Z,1.45
2022-09-27T00:48:47.286Z,1.40
2022-09-27T00:58:48.580Z,1.20
2022-09-27T01:08:49.881Z,1.67
2022-09-27T01:18:52.275Z,1.17
2022-09-27T01:28:53.547Z,1.40
2022-09-27T01:38:56.345Z,1.55
2022-09-27T01:48:57.652Z,1.10
2022-09-27T01:58:59.271Z,1.40
2022-09-27T02:09:00.608Z,1.45
2022-09-27T02:19:01.843Z,1.60
2022-09-27T02:29:03.124Z,1.88
2022-09-27T02:39:04.417Z,1.50
2022-09-27T02:49:05.707Z,1.88
2022-09-27T02:59:06.986Z,2.10
2022-09-27T03:09:08.365Z,2.13
2022-09-27T03:19:09.736Z,3.03
2022-09-27T03:29:11.235Z,3.10
2022-09-27T03:39:12.588Z,3.15
2022-09-27T03:49:13.965Z,2.25
2022-09-27T03:59:15.361Z,2.85
2022-09-27T04:09:16.888Z,2.47
2022-09-27T04:19:18.216Z,2.47
2022-09-27T04:29:19.484Z,3.10
2022-09-27T04:39:20.759Z,2.30
2022-09-27T04:49:22.047Z,2.15
2022-09-27T04:59:23.612Z,2.20
2022-09-27T05:09:24.880Z,2.05
2022-09-27T05:19:26.158Z,1.40
2022-09-27T05:29:27.419Z,1.60
2022-09-27T05:39:29.515Z,1.50
2022-09-27T05:49:30.823Z,1.35
2022-09-27T05:59:32.083Z,1.30
2022-09-27T06:09:33.358Z,1.20
2022-09-27T06:19:35.632Z,1.10
2022-09-27T06:29:37.590Z,1.25
2022-09-27T06:39:38.892Z,1.20
2022-09-27T06:49:40.568Z,1.40
2022-09-27T07:00:00.465Z,1.48
2022-09-27T07:10:03.343Z,1.40
2022-09-27T07:20:07.645Z,1.50
2022-09-27T07:30:08.942Z,1.40
2022-09-27T07:40:10.288Z,1.60
2022-09-27T07:50:11.625Z,1.10
2022-09-27T08:00:12.918Z,0.98
2022-09-27T08:10:14.223Z,1.33
2022-09-27T08:20:15.495Z,1.20
2022-09-27T08:30:16.785Z,1.83
2022-09-27T08:40:18.115Z,2.05
2022-09-27T08:50:19.419Z,2.08
2022-09-27T09:00:21.357Z,2.47
2022-09-27T09:10:42.544Z,1.80
2022-09-27T09:20:43.822Z,2.13
2022-09-27T09:30:45.137Z,2.90
2022-09-27T09:40:46.454Z,2.40
2022-09-27T09:50:47.800Z,2.80
2022-09-27T10:00:49.107Z,3.03
2022-09-27T10:10:50.606Z,2.78
2022-09-27T10:20:51.881Z,4.00
2022-09-27T10:30:53.178Z,3.03
2022-09-27T10:40:55.834Z,2.10
2022-09-27T10:50:59.068Z,2.00
2022-09-27T11:01:01.437Z,1.40
2022-09-27T11:11:02.837Z,1.05
2022-09-27T11:21:04.126Z,0.80
2022-09-27T11:31:05.477Z,0.90
2022-09-27T11:41:06.759Z,1.00
2022-09-27T11:51:08.051Z,0.57
2022-09-27T12:01:09.351Z,0.70
2022-09-27T12:11:10.575Z,0.88
2022-09-27T12:21:12.450Z,0.90
2022-09-27T12:31:31.746Z,0.95
2022-09-27T12:41:33.068Z,0.70
2022-09-27T12:51:34.363Z,1.00
2022-09-27T13:01:35.749Z,0.90
2022-09-27T13:11:37.055Z,1.00
2022-09-27T13:21:38.266Z,1.15
2022-09-27T13:31:39.590Z,0.70
2022-09-27T13:41:40.895Z,0.82
2022-09-27T13:51:42.446Z,0.60
2022-09-27T14:01:43.741Z,0.57
2022-09-27T14:11:45.062Z,0.88
2022-09-27T14:21:46.705Z,0.90
2022-09-27T14:31:50.841Z,1.10
2022-09-27T14:41:52.133Z,0.90
2022-09-27T14:51:54.453Z,0.63
2022-09-27T15:01:55.738Z,0.98
2022-09-27T15:11:57.019Z,0.82
2022-09-27T15:21:58.699Z,0.75
2022-09-27T15:31:59.984Z,1.60
2022-09-27T15:42:01.409Z,0.90
2022-09-27T15:52:02.963Z,0.90
2022-09-27T16:02:08.236Z,0.47
2022-09-27T16:12:09.858Z,0.60
2022-09-27T16:22:11.197Z,0.82
2022-09-27T16:32:12.467Z,1.20
2022-09-27T16:42:14.511Z,1.33
2022-09-27T16:52:16.254Z,1.60
2022-09-27T17:02:18.239Z,1.10
2022-09-27T17:12:19.625Z,1.73
2022-09-27T17:22:21.155Z,1.35
2022-09-27T17:32:24.367Z,1.30
2022-09-27T17:42:25.745Z,1.75
2022-09-27T17:52:27.204Z,1.80
2022-09-27T18:02:28.582Z,1.70
2022-09-27T18:12:32.101Z,3.60
2022-09-27T18:22:33.332Z,1.17
2022-09-27T18:32:34.615Z,1.20
2022-09-27T18:42:35.902Z,1.30
2022-09-27T18:52:38.201Z,1.30
2022-09-27T19:02:39.500Z,1.90
2022-09-27T19:12:40.810Z,1.55
2022-09-27T19:22:42.741Z,1.40
2022-09-27T19:32:44.089Z,1.40
2022-09-27T19:42:45.364Z,1.60
2022-09-27T19:52:46.959Z,2.65
2022-09-27T20:02:48.532Z,1.25
2022-09-27T20:12:51.696Z,1.40
2022-09-27T20:22:52.993Z,3.78
2022-09-27T20:33:12.798Z,1.80
2022-09-27T20:43:14.027Z,1.40
2022-09-27T20:53:15.315Z,1.70
2022-09-27T21:03:21.499Z,1.77
2022-09-27T21:13:23.094Z,1.38
2022-09-27T21:23:24.401Z,1.25
2022-09-27T21:33:25.672Z,1.15
2022-09-27T21:43:27.200Z,1.40
2022-09-27T21:53:28.506Z,0.80
2022-09-27T22:03:29.803Z,1.10
2022-09-27T22:13:31.067Z,1.05
2022-09-27T22:23:32.365Z,0.80
2022-09-27T22:33:33.658Z,0.90
2022-09-27T22:43:34.924Z,0.90
2022-09-27T22:53:36.202Z,1.02
2022-09-27T23:03:37.463Z,1.55
2022-09-27T23:13:38.802Z,1.40
2022-09-27T23:23:44.771Z,0.90
2022-09-27T23:33:46.401Z,1.33
2022-09-27T23:43:49.685Z,1.33
2022-09-27T23:53:51.006Z,1.80
